createdAt,value
2018-08-25T00:00:44.819Z,100.00
2018-08-25T00:03:14.046Z,100.00
2018-08-25T00:05:43.221Z,100.00
2018-08-25T00:08:12.505Z,100.00
2018-08-25T00:10:41.734Z,100.00
2018-08-25T00:13:11.440Z,100.00
2018-08-25T00:15:40.643Z,100.00
2018-08-25T00:18:10.708Z,100.00
2018-08-25T00:20:40.206Z,100.00
2018-08-25T00:23:09.590Z,100.00
2018-08-25T00:25:38.856Z,100.00
2018-08-25T00:28:08.073Z,100.00
2018-08-25T00:30:42.539Z,100.00
2018-08-25T00:33:11.710Z,100.00
2018-08-25T00:35:40.963Z,100.00
2018-08-25T00:38:10.235Z,100.00
2018-08-25T00:40:39.449Z,100.00
2018-08-25T00:43:08.878Z,100.00
2018-08-25T00:45:38.223Z,100.00
2018-08-25T00:48:07.611Z,100.00
2018-08-25T00:50:36.940Z,100.00
2018-08-25T00:53:06.609Z,100.00
2018-08-25T00:55:36.012Z,100.00
2018-08-25T00:58:05.432Z,100.00
2018-08-25T01:00:34.905Z,100.00
2018-08-25T01:03:04.247Z,100.00
2018-08-25T01:05:33.431Z,100.00
2018-08-25T01:08:02.760Z,100.00
2018-08-25T01:10:31.997Z,100.00
2018-08-25T01:13:01.289Z,100.00
2018-08-25T01:15:30.561Z,100.00
2018-08-25T01:17:59.965Z,100.00
2018-08-25T01:20:29.202Z,100.00
2018-08-25T01:22:58.474Z,100.00
2018-08-25T01:25:27.698Z,100.00
2018-08-25T01:27:56.999Z,100.00
2018-08-25T01:30:26.443Z,100.00
2018-08-25T01:32:55.627Z,100.00
2018-08-25T01:35:24.776Z,100.00
2018-08-25T01:37:54.331Z,100.00
2018-08-25T01:40:23.555Z,100.00
2018-08-25T01:42:52.763Z,100.00
2018-08-25T01:45:22.131Z,100.00
2018-08-25T01:47:52.083Z,100.00
2018-08-25T01:50:21.277Z,100.00
2018-08-25T01:52:50.451Z,100.00
2018-08-25T01:55:19.690Z,100.00
2018-08-25T01:57:48.875Z,100.00
2018-08-25T02:00:18.274Z,100.00
2018-08-25T02:02:47.594Z,100.00
2018-08-25T02:05:16.685Z,100.00
2018-08-25T02:07:45.927Z,100.00
2018-08-25T02:10:15.092Z,100.00
2018-08-25T02:12:44.286Z,100.00
2018-08-25T02:15:13.471Z,100.00
2018-08-25T02:17:42.677Z,100.00
2018-08-25T02:20:11.837Z,100.00
2018-08-25T02:22:41.009Z,100.00
2018-08-25T02:25:11.110Z,100.00
2018-08-25T02:27:40.263Z,100.00
2018-08-25T02:30:09.479Z,100.00
2018-08-25T02:32:38.825Z,100.00
2018-08-25T02:35:08.262Z,100.00
2018-08-25T02:37:37.468Z,100.00
2018-08-25T02:40:06.862Z,100.00
2018-08-25T02:42:36.118Z,100.00
2018-08-25T02:45:05.541Z,100.00
2018-08-25T02:47:35.258Z,100.00
2018-08-25T02:50:04.603Z,100.00
2018-08-25T02:52:33.809Z,100.00
2018-08-25T02:55:03.015Z,100.00
2018-08-25T02:57:32.173Z,100.00
2018-08-25T03:00:01.795Z,100.00
2018-08-25T03:02:31.609Z,100.00
2018-08-25T03:05:00.820Z,100.00
2018-08-25T03:07:29.989Z,100.00
2018-08-25T03:09:59.276Z,100.00
2018-08-25T03:12:28.545Z,100.00
2018-08-25T03:14:57.728Z,100.00
2018-08-25T03:17:26.889Z,100.00
2018-08-25T03:19:56.139Z,100.00
2018-08-25T03:22:25.378Z,100.00
2018-08-25T03:24:54.580Z,100.00
2018-08-25T03:27:23.765Z,99.55
2018-08-25T03:29:52.991Z,99.43
2018-08-25T03:32:22.234Z,98.82
2018-08-25T03:34:51.387Z,96.82
2018-08-25T03:37:20.580Z,96.44
2018-08-25T03:39:49.765Z,96.32
2018-08-25T03:42:18.965Z,97.06
2018-08-25T03:44:48.247Z,96.69
2018-08-25T03:47:17.421Z,95.00
2018-08-25T03:49:46.624Z,95.20
2018-08-25T03:52:15.847Z,95.06
2018-08-25T03:54:45.023Z,95.02
2018-08-25T03:57:14.207Z,94.49
2018-08-25T03:59:43.537Z,94.17
2018-08-25T04:02:12.736Z,94.58
2018-08-25T04:04:41.936Z,94.87
2018-08-25T04:07:11.318Z,95.63
2018-08-25T04:09:40.897Z,95.95
2018-08-25T04:12:10.081Z,95.91
2018-08-25T04:14:39.318Z,95.91
2018-08-25T04:17:08.626Z,95.93
2018-08-25T04:19:37.957Z,95.27
2018-08-25T04:22:07.220Z,95.05
2018-08-25T04:24:36.307Z,95.90
2018-08-25T04:27:05.816Z,96.34
2018-08-25T04:29:34.985Z,96.47
2018-08-25T04:32:04.181Z,97.55
2018-08-25T04:34:33.325Z,98.01
2018-08-25T04:37:02.520Z,98.33
2018-08-25T04:39:31.690Z,98.46
2018-08-25T04:42:00.810Z,97.71
2018-08-25T04:44:29.951Z,97.81
2018-08-25T04:46:59.093Z,97.99
2018-08-25T04:49:28.289Z,97.96
2018-08-25T04:51:57.536Z,97.77
2018-08-25T04:54:26.700Z,97.24
2018-08-25T04:56:55.875Z,96.34
2018-08-25T04:59:25.037Z,96.13
2018-08-25T05:01:54.334Z,96.98
2018-08-25T05:04:23.376Z,96.58
2018-08-25T05:06:52.666Z,96.49
2018-08-25T05:09:21.916Z,96.56
2018-08-25T05:11:51.065Z,95.69
2018-08-25T05:14:23.678Z,95.67
2018-08-25T05:16:52.866Z,95.65
2018-08-25T05:19:22.082Z,94.84
2018-08-25T05:21:51.298Z,94.01
2018-08-25T05:24:20.439Z,95.08
2018-08-25T05:26:49.745Z,94.64
2018-08-25T05:29:18.946Z,93.50
2018-08-25T05:31:48.382Z,92.64
2018-08-25T05:34:17.561Z,92.62
2018-08-25T05:36:46.767Z,92.48
2018-08-25T05:39:15.912Z,90.92
2018-08-25T05:41:45.432Z,90.43
2018-08-25T05:44:14.730Z,90.01
2018-08-25T05:46:43.819Z,89.28
2018-08-25T05:49:12.978Z,90.37
2018-08-25T05:51:42.158Z,88.41
2018-08-25T05:54:11.462Z,87.73
2018-08-25T05:56:40.661Z,88.12
2018-08-25T05:59:09.985Z,87.89
2018-08-25T06:01:39.174Z,87.92
2018-08-25T06:04:08.442Z,87.58
2018-08-25T06:06:37.877Z,87.71
2018-08-25T06:09:10.156Z,88.10
2018-08-25T06:11:39.854Z,86.65
2018-08-25T06:14:09.038Z,86.70
2018-08-25T06:16:38.225Z,87.54
2018-08-25T06:19:07.897Z,87.35
2018-08-25T06:21:37.069Z,86.60
2018-08-25T06:24:06.339Z,86.55
2018-08-25T06:26:35.516Z,85.65
2018-08-25T06:29:04.785Z,84.71
2018-08-25T06:31:34.329Z,84.04
2018-08-25T06:34:03.774Z,83.21
2018-08-25T06:36:32.947Z,82.45
2018-08-25T06:39:02.128Z,83.30
2018-08-25T06:41:31.362Z,82.65
2018-08-25T06:44:00.507Z,82.37
2018-08-25T06:46:29.750Z,82.38
2018-08-25T06:48:58.975Z,81.48
2018-08-25T06:51:28.142Z,82.15
2018-08-25T06:53:57.326Z,83.07
2018-08-25T06:56:26.561Z,81.10
2018-08-25T06:58:55.781Z,81.76
2018-08-25T07:01:24.959Z,83.00
2018-08-25T07:03:54.417Z,82.09
2018-08-25T07:06:23.809Z,82.54
2018-08-25T07:08:53.530Z,82.99
2018-08-25T07:11:22.717Z,82.80
2018-08-25T07:13:51.853Z,83.18
2018-08-25T07:16:22.156Z,83.64
2018-08-25T07:18:51.527Z,83.03
2018-08-25T07:21:21.969Z,83.05
2018-08-25T07:23:51.538Z,82.17
2018-08-25T07:26:20.707Z,83.22
2018-08-25T07:28:49.882Z,82.95
2018-08-25T07:31:19.127Z,83.47
2018-08-25T07:33:48.937Z,83.64
2018-08-25T07:36:18.149Z,84.24
2018-08-25T07:38:47.385Z,83.46
2018-08-25T07:41:16.519Z,84.45
2018-08-25T07:43:45.633Z,84.48
2018-08-25T07:46:14.819Z,85.00
2018-08-25T07:48:44.518Z,85.87
2018-08-25T07:51:13.590Z,84.36
2018-08-25T07:53:42.850Z,85.81
2018-08-25T07:56:12.066Z,85.97
2018-08-25T07:58:41.209Z,86.19
2018-08-25T08:01:10.497Z,86.00
2018-08-25T08:03:39.739Z,85.06
2018-08-25T08:06:08.971Z,86.23
2018-08-25T08:08:38.172Z,85.02
2018-08-25T08:11:07.631Z,83.24
2018-08-25T08:13:36.798Z,83.39
2018-08-25T08:16:06.490Z,82.80
2018-08-25T08:18:35.848Z,83.77
2018-08-25T08:21:05.244Z,83.43
2018-08-25T08:23:34.570Z,83.95
2018-08-25T08:26:03.851Z,84.31
2018-08-25T08:28:33.134Z,83.49
2018-08-25T08:31:02.323Z,84.58
2018-08-25T08:33:31.577Z,84.49
2018-08-25T08:36:00.807Z,86.19
2018-08-25T08:38:32.533Z,88.33
2018-08-25T08:41:01.846Z,87.84
2018-08-25T08:43:31.034Z,87.35
2018-08-25T08:46:00.297Z,89.31
2018-08-25T08:48:29.607Z,88.59
2018-08-25T08:50:59.344Z,88.34
2018-08-25T08:53:28.616Z,89.33
2018-08-25T08:55:57.800Z,88.37
2018-08-25T08:58:27.159Z,87.40
2018-08-25T09:00:56.518Z,88.13
2018-08-25T09:03:25.727Z,89.16
2018-08-25T09:05:54.894Z,86.64
2018-08-25T09:08:24.080Z,87.62
2018-08-25T09:10:53.264Z,88.00
2018-08-25T09:13:22.553Z,87.12
2018-08-25T09:15:51.807Z,87.31
2018-08-25T09:18:20.962Z,87.10
2018-08-25T09:20:50.163Z,87.16
2018-08-25T09:23:19.474Z,87.63
2018-08-25T09:25:48.766Z,87.57
2018-08-25T09:28:17.993Z,87.35
2018-08-25T09:30:47.181Z,86.94
2018-08-25T09:33:16.372Z,85.52
2018-08-25T09:35:45.597Z,85.02
2018-08-25T09:38:15.145Z,83.92
2018-08-25T09:40:44.333Z,83.87
2018-08-25T09:43:13.500Z,83.48
2018-08-25T09:45:42.892Z,85.14
2018-08-25T09:48:12.061Z,85.13
2018-08-25T09:50:41.267Z,81.70
2018-08-25T09:53:10.495Z,83.15
2018-08-25T09:55:39.731Z,83.28
2018-08-25T09:58:08.996Z,82.73
2018-08-25T10:00:38.244Z,81.49
2018-08-25T10:03:07.810Z,80.60
2018-08-25T10:05:36.998Z,81.80
2018-08-25T10:08:06.278Z,83.11
2018-08-25T10:10:35.571Z,85.34
2018-08-25T10:13:04.774Z,84.33
2018-08-25T10:15:33.965Z,83.71
2018-08-25T10:18:04.159Z,82.13
2018-08-25T10:20:33.866Z,82.38
2018-08-25T10:23:03.102Z,82.36
2018-08-25T10:25:32.585Z,81.82
2018-08-25T10:28:01.783Z,82.47
2018-08-25T10:30:31.030Z,82.40
2018-08-25T10:33:00.338Z,81.28
2018-08-25T10:35:29.512Z,81.82
2018-08-25T10:37:58.756Z,82.14
2018-08-25T10:40:27.933Z,81.28
2018-08-25T10:42:57.180Z,81.72
2018-08-25T10:45:26.392Z,78.19
2018-08-25T10:47:55.843Z,78.58
2018-08-25T10:50:25.553Z,80.35
2018-08-25T10:52:54.723Z,78.80
2018-08-25T10:55:23.941Z,78.92
2018-08-25T10:57:53.153Z,79.35
2018-08-25T11:00:22.463Z,79.37
2018-08-25T11:02:51.581Z,79.25
2018-08-25T11:05:20.785Z,80.25
2018-08-25T11:07:50.021Z,78.39
2018-08-25T11:10:19.308Z,78.31
2018-08-25T11:12:48.586Z,78.22
2018-08-25T11:15:17.835Z,78.83
2018-08-25T11:17:47.255Z,78.27
2018-08-25T11:20:17.214Z,77.80
2018-08-25T11:22:46.397Z,76.51
2018-08-25T11:25:15.562Z,77.81
2018-08-25T11:27:44.813Z,77.04
2018-08-25T11:30:14.295Z,77.22
2018-08-25T11:32:43.559Z,74.98
2018-08-25T11:35:12.738Z,72.01
2018-08-25T11:37:41.977Z,71.74
2018-08-25T11:40:11.748Z,71.01
2018-08-25T11:42:40.933Z,71.34
2018-08-25T11:45:12.690Z,70.00
2018-08-25T11:47:41.912Z,69.57
2018-08-25T11:50:12.087Z,68.32
2018-08-25T11:52:41.629Z,68.46
2018-08-25T11:55:11.622Z,68.93
2018-08-25T11:57:40.836Z,69.89
2018-08-25T12:00:10.570Z,69.39
2018-08-25T12:02:40.269Z,70.42
2018-08-25T12:05:09.533Z,70.50
2018-08-25T12:07:39.798Z,69.81
2018-08-25T12:10:09.265Z,70.96
2018-08-25T12:12:42.964Z,70.17
2018-08-25T12:15:15.344Z,70.51
2018-08-25T12:17:44.774Z,69.93
2018-08-25T12:20:15.422Z,70.19
2018-08-25T12:22:44.669Z,70.42
2018-08-25T12:25:13.862Z,70.72
2018-08-25T12:27:43.595Z,69.98
2018-08-25T12:30:13.067Z,70.58
2018-08-25T12:32:42.325Z,69.30
2018-08-25T12:35:11.814Z,69.65
2018-08-25T12:37:41.028Z,68.37
2018-08-25T12:40:13.773Z,69.10
2018-08-25T12:42:43.437Z,67.78
2018-08-25T12:45:13.330Z,67.57
2018-08-25T12:47:42.428Z,67.75
2018-08-25T12:50:11.871Z,68.39
2018-08-25T12:52:42.490Z,68.14
2018-08-25T12:55:12.227Z,68.61
2018-08-25T12:57:41.861Z,68.13
2018-08-25T13:00:11.829Z,67.23
2018-08-25T13:02:41.031Z,68.16
2018-08-25T13:05:11.062Z,65.96
2018-08-25T13:07:41.532Z,65.51
2018-08-25T13:10:10.817Z,66.13
2018-08-25T13:12:40.627Z,66.26
2018-08-25T13:15:10.746Z,68.08
2018-08-25T13:17:40.490Z,65.55
2018-08-25T13:20:10.617Z,65.50
2018-08-25T13:22:39.961Z,65.79
2018-08-25T13:25:09.190Z,68.03
2018-08-25T13:27:38.708Z,66.29
2018-08-25T13:30:07.970Z,66.10
2018-08-25T13:32:37.199Z,66.19
2018-08-25T13:35:06.784Z,64.83
2018-08-25T13:37:38.032Z,66.08
2018-08-25T13:40:07.658Z,66.79
2018-08-25T13:42:36.883Z,65.16
2018-08-25T13:45:07.750Z,67.66
2018-08-25T13:47:37.071Z,66.99
2018-08-25T13:50:06.811Z,68.19
2018-08-25T13:52:36.157Z,68.01
2018-08-25T13:55:05.600Z,68.02
2018-08-25T13:57:35.026Z,67.78
2018-08-25T14:00:04.293Z,67.69
2018-08-25T14:02:33.505Z,68.92
2018-08-25T14:05:03.812Z,69.24
2018-08-25T14:07:33.299Z,69.24
2018-08-25T14:10:03.344Z,70.14
2018-08-25T14:12:32.548Z,68.44
2018-08-25T14:15:01.814Z,69.42
2018-08-25T14:17:31.816Z,68.23
2018-08-25T14:20:01.280Z,68.91
2018-08-25T14:22:30.480Z,68.21
2018-08-25T14:25:00.385Z,68.41
2018-08-25T14:27:29.697Z,69.12
2018-08-25T14:29:58.907Z,68.24
2018-08-25T14:32:28.197Z,69.50
2018-08-25T14:34:58.567Z,69.49
2018-08-25T14:37:27.805Z,69.41
2018-08-25T14:39:57.915Z,68.48
2018-08-25T14:42:27.953Z,69.21
2018-08-25T14:44:57.230Z,68.67
2018-08-25T14:47:26.412Z,67.67
2018-08-25T14:49:55.854Z,66.57
2018-08-25T14:52:26.074Z,66.37
2018-08-25T14:54:55.256Z,67.99
2018-08-25T14:57:24.697Z,68.97
2018-08-25T14:59:53.977Z,69.21
2018-08-25T15:02:23.581Z,69.55
2018-08-25T15:04:52.955Z,69.25
2018-08-25T15:07:22.280Z,69.39
2018-08-25T15:09:51.759Z,70.28
2018-08-25T15:12:20.959Z,71.71
2018-08-25T15:14:50.203Z,73.13
2018-08-25T15:17:19.542Z,73.36
2018-08-25T15:19:48.712Z,73.05
2018-08-25T15:22:17.899Z,72.51
2018-08-25T15:24:47.995Z,72.58
2018-08-25T15:27:17.354Z,73.34
2018-08-25T15:29:46.684Z,74.87
2018-08-25T15:32:15.852Z,75.75
2018-08-25T15:34:45.320Z,75.30
2018-08-25T15:37:14.592Z,75.58
2018-08-25T15:39:43.817Z,75.89
2018-08-25T15:42:13.128Z,76.66
2018-08-25T15:44:42.414Z,77.71
2018-08-25T15:47:12.814Z,78.94
2018-08-25T15:49:42.121Z,78.59
2018-08-25T15:52:11.557Z,79.78
2018-08-25T15:54:41.070Z,80.21
2018-08-25T15:57:11.716Z,81.68
2018-08-25T15:59:41.007Z,81.44
2018-08-25T16:02:10.893Z,82.35
2018-08-25T16:04:40.185Z,85.01
2018-08-25T16:07:09.470Z,84.32
2018-08-25T16:09:38.746Z,85.19
2018-08-25T16:12:11.262Z,85.32
2018-08-25T16:14:40.407Z,86.31
2018-08-25T16:17:09.752Z,86.43
2018-08-25T16:19:39.003Z,87.57
2018-08-25T16:22:08.129Z,87.26
2018-08-25T16:24:38.235Z,86.06
2018-08-25T16:27:07.756Z,87.32
2018-08-25T16:29:37.822Z,87.10
2018-08-25T16:32:06.993Z,84.84
2018-08-25T16:34:36.143Z,85.84
2018-08-25T16:37:05.355Z,84.78
2018-08-25T16:39:34.626Z,84.97
2018-08-25T16:42:03.773Z,86.27
2018-08-25T16:44:32.969Z,86.45
2018-08-25T16:47:02.195Z,87.18
2018-08-25T16:49:31.476Z,87.53
2018-08-25T16:52:00.822Z,87.23
2018-08-25T16:54:30.148Z,87.92
2018-08-25T16:56:59.385Z,88.21
2018-08-25T16:59:29.154Z,87.74
2018-08-25T17:01:58.425Z,87.33
2018-08-25T17:04:28.432Z,88.15
2018-08-25T17:06:57.636Z,89.07
2018-08-25T17:09:26.812Z,89.85
2018-08-25T17:11:55.999Z,90.10
2018-08-25T17:14:25.157Z,90.01
2018-08-25T17:16:54.292Z,90.78
2018-08-25T17:19:23.734Z,90.92
2018-08-25T17:21:53.003Z,91.77
2018-08-25T17:24:22.125Z,91.38
2018-08-25T17:26:57.464Z,91.86
2018-08-25T17:29:26.597Z,91.84
2018-08-25T17:31:55.791Z,93.01
2018-08-25T17:34:25.846Z,93.96
2018-08-25T17:36:55.048Z,93.84
2018-08-25T17:39:24.196Z,93.84
2018-08-25T17:41:53.393Z,93.59
2018-08-25T17:44:22.542Z,93.78
2018-08-25T17:46:51.810Z,93.88
2018-08-25T17:49:21.913Z,93.64
2018-08-25T17:51:51.685Z,94.14
2018-08-25T17:54:20.865Z,94.72
2018-08-25T17:56:52.099Z,94.60
2018-08-25T17:59:22.154Z,94.04
2018-08-25T18:01:52.381Z,94.27
2018-08-25T18:04:21.598Z,95.25
2018-08-25T18:06:51.374Z,95.41
2018-08-25T18:09:21.092Z,95.83
2018-08-25T18:11:50.253Z,96.19
2018-08-25T18:14:19.581Z,95.72
2018-08-25T18:16:49.701Z,95.47
2018-08-25T18:19:19.304Z,95.55
2018-08-25T18:21:48.474Z,95.75
2018-08-25T18:24:17.922Z,95.75
2018-08-25T18:26:47.117Z,95.25
2018-08-25T18:29:16.295Z,96.72
2018-08-25T18:31:45.482Z,96.72
2018-08-25T18:34:14.824Z,96.73
2018-08-25T18:36:44.014Z,97.22
2018-08-25T18:39:14.305Z,97.44
2018-08-25T18:41:44.737Z,97.20
2018-08-25T18:44:14.514Z,97.06
2018-08-25T18:46:43.785Z,98.08
2018-08-25T18:49:14.209Z,97.99
2018-08-25T18:51:43.422Z,98.59
2018-08-25T18:54:19.246Z,98.36
2018-08-25T18:56:48.607Z,98.90
2018-08-25T18:59:17.924Z,98.98
2018-08-25T19:01:47.446Z,99.44
2018-08-25T19:04:16.896Z,99.82
2018-08-25T19:06:46.166Z,99.89
2018-08-25T19:09:15.595Z,100.00
2018-08-25T19:11:44.740Z,100.00
2018-08-25T19:14:14.093Z,99.63
2018-08-25T19:16:43.492Z,99.39
2018-08-25T19:19:12.755Z,99.32
2018-08-25T19:21:42.250Z,99.08
2018-08-25T19:24:11.521Z,99.75
2018-08-25T19:26:40.689Z,100.00
2018-08-25T19:29:09.881Z,100.00
2018-08-25T19:31:39.109Z,100.00
2018-08-25T19:34:08.286Z,100.00
2018-08-25T19:36:37.440Z,100.00
2018-08-25T19:39:09.189Z,100.00
2018-08-25T19:41:38.396Z,99.92
2018-08-25T19:44:07.522Z,100.00
2018-08-25T19:46:36.770Z,100.00
2018-08-25T19:49:06.262Z,100.00
2018-08-25T19:51:35.425Z,100.00
2018-08-25T19:54:04.829Z,100.00
2018-08-25T19:56:33.965Z,100.00
2018-08-25T19:59:03.334Z,100.00
2018-08-25T20:01:32.510Z,100.00
2018-08-25T20:04:01.671Z,100.00
2018-08-25T20:06:30.862Z,100.00
2018-08-25T20:09:00.017Z,100.00
2018-08-25T20:11:29.190Z,100.00
2018-08-25T20:13:58.354Z,99.95
2018-08-25T20:16:27.505Z,99.88
2018-08-25T20:18:56.674Z,99.83
2018-08-25T20:21:25.865Z,100.00
2018-08-25T20:23:55.015Z,99.92
2018-08-25T20:26:24.278Z,100.00
2018-08-25T20:28:53.545Z,100.00
2018-08-25T20:31:22.886Z,100.00
2018-08-25T20:33:52.211Z,100.00
2018-08-25T20:36:21.524Z,100.00
2018-08-25T20:38:51.037Z,100.00
2018-08-25T20:41:20.190Z,100.00
2018-08-25T20:43:49.325Z,100.00
2018-08-25T20:46:18.514Z,100.00
2018-08-25T20:48:47.687Z,100.00
2018-08-25T20:51:17.526Z,100.00
2018-08-25T20:53:47.845Z,100.00
2018-08-25T20:56:16.985Z,100.00
2018-08-25T20:58:46.102Z,100.00
2018-08-25T21:01:15.260Z,100.00
2018-08-25T21:03:44.420Z,100.00
2018-08-25T21:06:13.601Z,100.00
2018-08-25T21:08:42.745Z,100.00
2018-08-25T21:11:11.947Z,100.00
2018-08-25T21:13:41.125Z,100.00
2018-08-25T21:16:10.278Z,100.00
2018-08-25T21:18:39.637Z,100.00
2018-08-25T21:21:08.969Z,100.00
2018-08-25T21:23:38.155Z,100.00
2018-08-25T21:26:07.730Z,100.00
2018-08-25T21:28:36.869Z,100.00
2018-08-25T21:31:06.384Z,100.00
2018-08-25T21:33:35.547Z,100.00
2018-08-25T21:36:04.681Z,100.00
2018-08-25T21:38:33.854Z,100.00
2018-08-25T21:41:03.035Z,100.00
2018-08-25T21:43:32.152Z,100.00
2018-08-25T21:46:01.316Z,100.00
2018-08-25T21:48:30.461Z,100.00
2018-08-25T21:50:59.724Z,100.00
2018-08-25T21:53:28.942Z,100.00
2018-08-25T21:55:58.070Z,100.00
2018-08-25T21:58:27.293Z,100.00
2018-08-25T22:00:57.498Z,100.00
2018-08-25T22:03:27.856Z,100.00
2018-08-25T22:05:57.655Z,100.00
2018-08-25T22:08:26.820Z,100.00
2018-08-25T22:10:55.973Z,100.00
2018-08-25T22:13:25.112Z,100.00
2018-08-25T22:15:54.393Z,100.00
2018-08-25T22:18:23.517Z,100.00
2018-08-25T22:20:53.023Z,100.00
2018-08-25T22:23:22.374Z,100.00
2018-08-25T22:25:51.732Z,100.00
2018-08-25T22:28:21.105Z,100.00
2018-08-25T22:30:50.724Z,100.00
2018-08-25T22:33:19.880Z,100.00
2018-08-25T22:35:49.210Z,100.00
2018-08-25T22:38:26.070Z,100.00
2018-08-25T22:40:59.537Z,100.00
2018-08-25T22:43:28.744Z,100.00
2018-08-25T22:45:57.932Z,100.00
2018-08-25T22:48:27.129Z,100.00
2018-08-25T22:50:56.351Z,100.00
2018-08-25T22:53:25.616Z,100.00
2018-08-25T22:55:54.868Z,100.00
2018-08-25T22:58:24.051Z,100.00
2018-08-25T23:00:53.641Z,100.00
2018-08-25T23:03:22.967Z,100.00
2018-08-25T23:05:52.293Z,100.00
2018-08-25T23:08:21.494Z,100.00
2018-08-25T23:10:50.922Z,100.00
2018-08-25T23:13:20.233Z,100.00
2018-08-25T23:15:49.452Z,100.00
2018-08-25T23:18:18.720Z,100.00
2018-08-25T23:20:48.122Z,100.00
2018-08-25T23:23:17.540Z,100.00
2018-08-25T23:25:46.821Z,100.00
2018-08-25T23:28:16.137Z,100.00
2018-08-25T23:30:45.354Z,100.00
2018-08-25T23:33:18.376Z,100.00
2018-08-25T23:35:47.590Z,100.00
2018-08-25T23:38:17.013Z,100.00
2018-08-25T23:40:46.294Z,100.00
2018-08-25T23:43:15.748Z,100.00
2018-08-25T23:45:45.243Z,100.00
2018-08-25T23:48:14.634Z,100.00
2018-08-25T23:50:43.930Z,100.00
2018-08-25T23:53:13.473Z,100.00
2018-08-25T23:55:42.848Z,100.00
2018-08-25T23:58:12.095Z,100.00
